createdAt,value
2022-09-03T00:02:17.004Z,10.68
2022-09-03T00:05:51.383Z,10.64
2022-09-03T00:09:27.238Z,10.60
2022-09-03T00:12:58.569Z,10.55
2022-09-03T00:16:41.416Z,10.50
2022-09-03T00:20:08.773Z,10.46
2022-09-03T00:23:45.615Z,10.40
2022-09-03T00:27:25.237Z,10.34
2022-09-03T00:31:18.518Z,10.28
2022-09-03T00:34:48.628Z,10.22
2022-09-03T00:38:18.083Z,10.18
2022-09-03T00:42:14.230Z,10.16
2022-09-03T00:45:52.894Z,10.11
2022-09-03T00:49:46.556Z,10.06
2022-09-03T00:53:41.351Z,10.01
2022-09-03T00:57:18.135Z,9.98
2022-09-03T01:00:43.945Z,9.94
2022-09-03T01:04:44.953Z,9.90
2022-09-03T01:08:26.614Z,9.88
2022-09-03T01:12:15.904Z,9.90
2022-09-03T01:16:16.472Z,9.91
2022-09-03T01:20:23.365Z,9.93
2022-09-03T01:24:23.047Z,9.94
2022-09-03T01:28:09.281Z,9.90
2022-09-03T01:31:41.490Z,9.84
2022-09-03T01:35:19.340Z,9.78
2022-09-03T01:38:45.511Z,9.72
2022-09-03T01:42:28.596Z,9.66
2022-09-03T01:46:08.630Z,9.62
2022-09-03T01:49:47.068Z,9.56
2022-09-03T01:53:46.874Z,9.51
2022-09-03T01:57:37.030Z,9.46
2022-09-03T02:01:10.447Z,9.42
2022-09-03T02:04:36.744Z,9.39
2022-09-03T02:08:13.198Z,9.36
2022-09-03T02:11:57.885Z,9.38
2022-09-03T02:15:49.392Z,9.42
2022-09-03T02:19:31.410Z,9.43
2022-09-03T02:22:54.332Z,9.43
2022-09-03T02:26:29.719Z,9.40
2022-09-03T02:30:07.802Z,9.37
2022-09-03T02:33:46.328Z,9.33
2022-09-03T02:37:20.240Z,9.27
2022-09-03T02:40:56.737Z,9.21
2022-09-03T02:44:37.768Z,9.14
2022-09-03T02:48:11.563Z,9.06
2022-09-03T02:51:47.087Z,8.99
2022-09-03T02:55:23.999Z,8.93
2022-09-03T02:59:02.050Z,8.91
2022-09-03T03:02:37.801Z,8.91
2022-09-03T03:06:14.547Z,8.95
2022-09-03T03:09:51.228Z,8.96
2022-09-03T03:13:29.704Z,8.95
2022-09-03T03:17:05.188Z,8.92
2022-09-03T03:20:42.202Z,8.89
2022-09-03T03:24:18.540Z,8.86
2022-09-03T03:28:14.565Z,8.83
2022-09-03T03:31:36.728Z,8.81
2022-09-03T03:35:32.296Z,8.78
2022-09-03T03:38:56.344Z,8.76
2022-09-03T03:42:34.394Z,8.77
2022-09-03T03:46:08.169Z,8.79
2022-09-03T03:49:44.584Z,8.83
2022-09-03T03:53:21.399Z,8.88
2022-09-03T03:56:57.920Z,8.87
2022-09-03T04:00:37.410Z,8.82
2022-09-03T04:04:11.715Z,8.76
2022-09-03T04:07:48.599Z,8.72
2022-09-03T04:11:26.203Z,8.69
2022-09-03T04:15:20.791Z,8.64
2022-09-03T04:18:42.608Z,8.62
2022-09-03T04:22:20.806Z,8.61
2022-09-03T04:25:55.930Z,8.61
2022-09-03T04:29:33.283Z,8.63
2022-09-03T04:33:30.150Z,8.65
2022-09-03T04:36:53.021Z,8.68
2022-09-03T04:40:28.944Z,8.70
2022-09-03T04:44:05.354Z,8.71
2022-09-03T04:47:42.364Z,8.70
2022-09-03T04:51:23.326Z,8.71
2022-09-03T04:55:15.252Z,8.76
2022-09-03T04:58:38.737Z,8.82
2022-09-03T05:02:15.644Z,8.94
2022-09-03T05:05:57.157Z,9.06
2022-09-03T05:09:27.357Z,9.20
2022-09-03T05:13:06.019Z,9.32
2022-09-03T05:16:41.065Z,9.43
2022-09-03T05:20:36.957Z,9.51
2022-09-03T05:24:00.472Z,9.60
2022-09-03T05:27:55.262Z,9.68
2022-09-03T05:31:19.013Z,9.79
2022-09-03T05:34:53.861Z,9.92
2022-09-03T05:38:30.717Z,10.05
2022-09-03T05:42:27.068Z,10.19
2022-09-03T05:45:49.191Z,10.32
2022-09-03T05:49:25.566Z,10.43
2022-09-03T05:53:01.984Z,10.55
2022-09-03T05:56:43.109Z,10.64
2022-09-03T06:00:16.272Z,10.75
2022-09-03T06:03:58.521Z,10.84
2022-09-03T06:07:29.532Z,10.94
2022-09-03T06:11:07.467Z,11.06
2022-09-03T06:14:42.736Z,11.25
2022-09-03T06:18:38.621Z,11.42
2022-09-03T06:22:00.148Z,11.60
2022-09-03T06:25:37.071Z,11.72
2022-09-03T06:29:14.428Z,11.82
2022-09-03T06:32:50.692Z,11.92
2022-09-03T06:36:27.263Z,12.02
2022-09-03T06:40:04.249Z,12.13
2022-09-03T06:43:42.814Z,12.24
2022-09-03T06:47:36.660Z,12.35
2022-09-03T06:51:01.261Z,12.50
2022-09-03T06:54:35.047Z,12.67
2022-09-03T06:58:12.962Z,12.85
2022-09-03T07:01:48.593Z,13.02
2022-09-03T07:05:28.705Z,13.10
2022-09-03T07:09:02.416Z,13.17
2022-09-03T07:12:38.861Z,13.25
2022-09-03T07:16:21.029Z,13.35
2022-09-03T07:19:52.384Z,13.45
2022-09-03T07:23:30.826Z,13.58
2022-09-03T07:27:06.823Z,13.73
2022-09-03T07:30:42.796Z,13.89
2022-09-03T07:34:22.201Z,14.00
2022-09-03T07:37:56.659Z,14.12
2022-09-03T07:41:33.647Z,14.27
2022-09-03T07:45:29.758Z,14.33
2022-09-03T07:48:56.438Z,14.43
2022-09-03T07:52:28.321Z,14.50
2022-09-03T07:56:10.806Z,14.58
2022-09-03T07:59:42.369Z,14.69
2022-09-03T08:03:19.048Z,14.83
2022-09-03T08:06:56.867Z,14.99
2022-09-03T08:10:38.343Z,15.13
2022-09-03T08:14:13.823Z,15.26
2022-09-03T08:17:45.860Z,15.35
2022-09-03T08:21:24.243Z,15.36
2022-09-03T08:25:00.237Z,15.41
2022-09-03T08:28:37.880Z,15.51
2022-09-03T08:32:34.284Z,15.63
2022-09-03T08:35:56.459Z,15.72
2022-09-03T08:39:33.140Z,15.80
2022-09-03T08:43:18.952Z,15.85
2022-09-03T08:46:51.736Z,15.93
2022-09-03T08:50:32.770Z,16.09
2022-09-03T08:54:00.947Z,16.21
2022-09-03T08:57:43.610Z,16.39
2022-09-03T09:01:56.986Z,16.53
2022-09-03T09:05:57.271Z,16.70
2022-09-03T09:09:41.802Z,16.92
2022-09-03T09:13:17.854Z,17.05
2022-09-03T09:16:57.004Z,17.15
2022-09-03T09:20:34.879Z,17.30
2022-09-03T09:24:03.802Z,17.32
2022-09-03T09:27:34.436Z,17.34
2022-09-03T09:31:16.135Z,17.50
2022-09-03T09:34:52.062Z,17.73
2022-09-03T09:38:30.052Z,17.66
2022-09-03T09:42:22.345Z,17.54
2022-09-03T09:45:46.346Z,17.47
2022-09-03T09:49:35.747Z,17.51
2022-09-03T09:53:14.650Z,17.57
2022-09-03T09:56:37.640Z,17.67
2022-09-03T10:00:17.242Z,17.82
2022-09-03T10:04:08.083Z,17.85
2022-09-03T10:08:18.005Z,17.82
2022-09-03T10:11:46.040Z,17.89
2022-09-03T10:15:30.668Z,17.94
2022-09-03T10:19:03.145Z,17.97
2022-09-03T10:22:35.301Z,18.06
2022-09-03T10:26:13.206Z,18.08
2022-09-03T10:29:43.411Z,18.07
2022-09-03T10:33:29.811Z,18.07
2022-09-03T10:37:17.171Z,18.04
2022-09-03T10:40:45.091Z,18.06
2022-09-03T10:44:55.127Z,18.19
2022-09-03T10:48:29.060Z,18.24
2022-09-03T10:52:23.454Z,18.24
2022-09-03T10:56:17.356Z,18.31
2022-09-03T11:00:12.372Z,18.52
2022-09-03T11:03:48.546Z,18.82
2022-09-03T11:07:17.696Z,19.14
2022-09-03T11:11:13.598Z,19.38
2022-09-03T11:14:43.155Z,19.54
2022-09-03T11:18:27.858Z,19.48
2022-09-03T11:22:10.578Z,19.34
2022-09-03T11:25:36.938Z,19.24
2022-09-03T11:29:38.225Z,19.22
2022-09-03T11:33:23.676Z,19.22
2022-09-03T11:36:48.099Z,19.22
2022-09-03T11:40:59.669Z,19.18
2022-09-03T11:44:21.594Z,19.15
2022-09-03T11:47:59.374Z,19.14
2022-09-03T11:51:37.858Z,19.14
2022-09-03T11:55:11.737Z,19.22
2022-09-03T11:59:01.259Z,19.22
2022-09-03T12:02:53.311Z,19.23
2022-09-03T12:07:20.267Z,19.21
2022-09-03T12:11:12.144Z,19.06
2022-09-03T12:14:49.666Z,18.88
2022-09-03T12:18:33.474Z,18.68
2022-09-03T12:22:17.771Z,18.50
2022-09-03T12:26:07.535Z,18.43
2022-09-03T12:29:32.206Z,18.36
2022-09-03T12:33:24.561Z,18.30
2022-09-03T12:36:49.376Z,18.19
2022-09-03T12:44:31.481Z,18.23
2022-09-03T12:48:02.254Z,18.45
2022-09-03T12:51:50.897Z,18.83
2022-09-03T12:56:08.880Z,19.20
2022-09-03T12:59:54.330Z,19.56
2022-09-03T13:03:43.498Z,19.90
2022-09-03T13:07:33.650Z,20.55
2022-09-03T13:11:03.927Z,20.57
2022-09-03T13:14:52.796Z,20.46
2022-09-03T13:18:26.377Z,20.72
2022-09-03T13:22:11.164Z,20.82
2022-09-03T13:25:46.426Z,21.39
2022-09-03T13:29:35.336Z,21.63
2022-09-03T13:33:15.617Z,21.82
2022-09-03T13:36:50.255Z,21.54
2022-09-03T13:40:33.119Z,21.49
2022-09-03T13:44:37.931Z,21.41
2022-09-03T13:48:33.165Z,21.16
2022-09-03T13:52:04.254Z,21.26
2022-09-03T13:55:48.241Z,21.50
2022-09-03T13:59:19.844Z,21.53
2022-09-03T14:03:36.656Z,21.73
2022-09-03T14:07:25.326Z,21.99
2022-09-03T14:11:06.286Z,21.96
2022-09-03T14:15:16.082Z,21.87
2022-09-03T14:18:45.241Z,22.15
2022-09-03T14:22:24.265Z,22.11
2022-09-03T14:26:01.542Z,22.01
2022-09-03T14:29:31.370Z,21.62
2022-09-03T14:33:47.119Z,21.66
2022-09-03T14:37:24.113Z,21.75
2022-09-03T14:40:54.381Z,21.94
2022-09-03T14:44:39.838Z,22.26
2022-09-03T14:48:31.645Z,22.48
2022-09-03T14:52:22.493Z,22.71
2022-09-03T14:56:09.647Z,22.84
2022-09-03T15:00:19.934Z,23.13
2022-09-03T15:03:51.504Z,23.25
2022-09-03T15:07:32.969Z,22.91
2022-09-03T15:11:00.956Z,22.93
2022-09-03T15:14:46.598Z,23.55
2022-09-03T15:18:47.798Z,23.64
2022-09-03T15:22:49.958Z,23.63
2022-09-03T15:26:39.589Z,23.02
2022-09-03T15:30:21.395Z,22.30
2022-09-03T15:33:52.981Z,21.68
2022-09-03T15:37:40.566Z,21.21
2022-09-03T15:41:11.056Z,20.88
2022-09-03T15:44:54.971Z,20.56
2022-09-03T15:49:12.574Z,20.26
2022-09-03T15:52:45.896Z,19.77
2022-09-03T15:56:36.479Z,19.50
2022-09-03T16:00:19.103Z,19.21
2022-09-03T16:03:59.582Z,19.10
2022-09-03T16:07:37.524Z,18.95
2022-09-03T16:11:23.027Z,18.88
2022-09-03T16:15:00.403Z,18.75
2022-09-03T16:18:22.542Z,18.67
2022-09-03T16:22:18.837Z,18.60
2022-09-03T16:25:52.754Z,18.45
2022-09-03T16:29:26.046Z,18.17
2022-09-03T16:33:36.737Z,18.02
2022-09-03T16:37:23.479Z,17.86
2022-09-03T16:41:08.907Z,17.80
2022-09-03T16:44:39.901Z,17.77
2022-09-03T16:48:17.545Z,17.71
2022-09-03T16:51:52.849Z,17.61
2022-09-03T16:55:39.781Z,17.52
2022-09-03T16:59:31.781Z,17.47
2022-09-03T17:03:26.531Z,17.41
2022-09-03T17:07:18.104Z,17.28
2022-09-03T17:11:18.738Z,17.18
2022-09-03T17:15:22.767Z,16.91
2022-09-03T17:18:52.138Z,16.61
2022-09-03T17:22:52.942Z,16.30
2022-09-03T17:26:29.986Z,16.01
2022-09-03T17:30:03.160Z,15.81
2022-09-03T17:33:45.710Z,15.59
2022-09-03T17:37:26.801Z,15.39
2022-09-03T17:41:08.822Z,15.21
2022-09-03T17:44:45.867Z,15.02
2022-09-03T17:48:55.693Z,14.85
2022-09-03T17:52:35.245Z,14.72
2022-09-03T17:56:02.685Z,14.58
2022-09-03T17:59:55.888Z,14.48
2022-09-03T18:03:27.590Z,14.36
2022-09-03T18:07:10.340Z,14.24
2022-09-03T18:10:51.143Z,14.15
2022-09-03T18:14:40.124Z,14.05
2022-09-03T18:18:28.879Z,13.94
2022-09-03T18:22:09.118Z,13.88
2022-09-03T18:25:54.567Z,13.82
2022-09-03T18:30:05.321Z,13.77
2022-09-03T18:34:04.804Z,13.76
2022-09-03T18:37:46.890Z,13.83
2022-09-03T18:41:49.583Z,13.88
2022-09-03T18:50:17.792Z,13.88
2022-09-03T18:54:50.629Z,13.93
2022-09-03T18:59:09.519Z,13.91
2022-09-03T19:03:11.495Z,13.81
2022-09-03T19:07:15.059Z,13.75
2022-09-03T19:11:10.817Z,13.69
2022-09-03T19:15:22.977Z,13.60
2022-09-03T19:19:18.435Z,13.55
2022-09-03T19:23:17.997Z,13.49
2022-09-03T19:27:29.901Z,13.43
2022-09-03T19:31:39.445Z,13.36
2022-09-03T19:35:37.842Z,13.25
2022-09-03T19:39:25.459Z,13.16
2022-09-03T19:43:27.588Z,13.13
2022-09-03T19:47:12.939Z,13.15
2022-09-03T19:51:00.579Z,13.13
2022-09-03T19:54:45.217Z,13.13
2022-09-03T19:58:42.668Z,13.14
2022-09-03T20:02:25.240Z,13.13
2022-09-03T20:06:10.830Z,13.12
2022-09-03T20:10:15.876Z,13.09
2022-09-03T20:13:58.330Z,13.06
2022-09-03T20:17:42.687Z,13.05
2022-09-03T20:21:59.507Z,13.05
2022-09-03T20:25:28.732Z,13.03
2022-09-03T20:29:25.599Z,13.00
2022-09-03T20:33:22.729Z,12.96
2022-09-03T20:37:16.225Z,12.94
2022-09-03T20:41:07.132Z,12.93
2022-09-03T20:45:08.237Z,12.89
2022-09-03T20:49:03.685Z,12.87
2022-09-03T20:52:45.865Z,12.86
2022-09-03T20:56:29.939Z,12.86
2022-09-03T21:00:09.977Z,12.86
2022-09-03T21:04:02.380Z,12.83
2022-09-03T21:07:50.674Z,12.78
2022-09-03T21:11:31.101Z,12.74
2022-09-03T21:15:03.650Z,12.71
2022-09-03T21:18:39.642Z,12.71
2022-09-03T21:22:51.957Z,12.70
2022-09-03T21:26:32.954Z,12.66
2022-09-03T21:30:16.945Z,12.61
2022-09-03T21:34:10.718Z,12.55
2022-09-03T21:37:37.467Z,12.47
2022-09-03T21:41:49.612Z,12.39
2022-09-03T21:45:21.104Z,12.32
2022-09-03T21:48:56.070Z,12.25
2022-09-03T21:52:54.915Z,12.21
2022-09-03T21:56:38.621Z,12.16
2022-09-03T22:00:18.894Z,12.10
2022-09-03T22:03:43.042Z,12.07
2022-09-03T22:07:54.999Z,12.06
2022-09-03T22:11:29.873Z,12.05
2022-09-03T22:14:55.734Z,12.05
2022-09-03T22:18:49.821Z,12.02
2022-09-03T22:23:06.809Z,12.00
2022-09-03T22:26:38.347Z,11.96
2022-09-03T22:30:21.496Z,11.93
2022-09-03T22:34:08.398Z,11.91
2022-09-03T22:37:58.870Z,11.94
2022-09-03T22:41:49.142Z,11.94
2022-09-03T22:45:51.009Z,11.90
2022-09-03T22:49:54.875Z,11.83
2022-09-03T22:53:44.915Z,11.78
2022-09-03T22:57:10.796Z,11.76
2022-09-03T23:00:54.580Z,11.72
2022-09-03T23:04:44.382Z,11.70
2022-09-03T23:08:15.335Z,11.74
2022-09-03T23:11:51.415Z,11.76
2022-09-03T23:15:30.255Z,11.72
2022-09-03T23:18:59.918Z,11.68
2022-09-03T23:22:59.493Z,11.65
2022-09-03T23:26:51.886Z,11.64
2022-09-03T23:30:13.555Z,11.62
2022-09-03T23:33:55.380Z,11.58
2022-09-03T23:37:39.061Z,11.50
2022-09-03T23:41:48.791Z,11.41
2022-09-03T23:45:19.542Z,11.39
2022-09-03T23:49:06.031Z,11.39
2022-09-03T23:52:40.549Z,11.39
2022-09-03T23:56:17.874Z,11.37
